sensor_id;sensor_type;location;lat;lon;timestamp;P1;durP1;ratioP1;P2;durP2;ratioP2
13651;SDS011;6899;51.546;6.912;2023-02-28T00:00:10;11.43;;;8.03;;
13651;SDS011;6899;51.546;6.912;2023-02-28T00:02:43;11.17;;;7.17;;
13651;SDS011;6899;51.546;6.912;2023-02-28T00:05:13;12.13;;;7.70;;
13651;SDS011;6899;51.546;6.912;2023-02-28T00:07:43;11.43;;;7.43;;
13651;SDS011;6899;51.546;6.912;2023-02-28T00:10:16;9.07;;;6.67;;
13651;SDS011;6899;51.546;6.912;2023-02-28T00:12:45;12.77;;;6.90;;
13651;SDS011;6899;51.546;6.912;2023-02-28T00:15:13;13.33;;;7.00;;
13651;SDS011;6899;51.546;6.912;2023-02-28T00:17:39;8.33;;;6.33;;
13651;SDS011;6899;51.546;6.912;2023-02-28T00:20:10;8.10;;;6.20;;
13651;SDS011;6899;51.546;6.912;2023-02-28T00:22:39;10.40;;;6.70;;
13651;SDS011;6899;51.546;6.912;2023-02-28T00:25:08;9.80;;;7.00;;
13651;SDS011;6899;51.546;6.912;2023-02-28T00:27:37;7.87;;;6.00;;
13651;SDS011;6899;51.546;6.912;2023-02-28T00:30:05;9.47;;;6.53;;
13651;SDS011;6899;51.546;6.912;2023-02-28T00:32:34;11.63;;;6.90;;
13651;SDS011;6899;51.546;6.912;2023-02-28T00:35:03;7.87;;;6.30;;
13651;SDS011;6899;51.546;6.912;2023-02-28T00:37:34;9.30;;;6.40;;
13651;SDS011;6899;51.546;6.912;2023-02-28T00:40:04;8.90;;;6.30;;
13651;SDS011;6899;51.546;6.912;2023-02-28T00:42:33;10.97;;;7.03;;
13651;SDS011;6899;51.546;6.912;2023-02-28T00:44:59;9.23;;;6.33;;
13651;SDS011;6899;51.546;6.912;2023-02-28T00:47:28;9.63;;;6.83;;
13651;SDS011;6899;51.546;6.912;2023-02-28T00:49:55;9.87;;;6.53;;
13651;SDS011;6899;51.546;6.912;2023-02-28T00:52:23;9.30;;;6.27;;
13651;SDS011;6899;51.546;6.912;2023-02-28T00:54:50;6.63;;;5.90;;
13651;SDS011;6899;51.546;6.912;2023-02-28T00:57:17;8.13;;;6.23;;
13651;SDS011;6899;51.546;6.912;2023-02-28T00:59:44;8.17;;;6.03;;
13651;SDS011;6899;51.546;6.912;2023-02-28T01:02:11;8.73;;;6.00;;
13651;SDS011;6899;51.546;6.912;2023-02-28T01:04:38;9.17;;;5.73;;
13651;SDS011;6899;51.546;6.912;2023-02-28T01:07:08;9.87;;;6.00;;
13651;SDS011;6899;51.546;6.912;2023-02-28T01:09:36;7.73;;;5.87;;
13651;SDS011;6899;51.546;6.912;2023-02-28T01:12:03;8.67;;;6.10;;
13651;SDS011;6899;51.546;6.912;2023-02-28T01:14:30;8.60;;;5.73;;
13651;SDS011;6899;51.546;6.912;2023-02-28T01:16:57;10.63;;;6.30;;
13651;SDS011;6899;51.546;6.912;2023-02-28T01:19:24;9.27;;;5.20;;
13651;SDS011;6899;51.546;6.912;2023-02-28T01:21:51;9.37;;;4.93;;
13651;SDS011;6899;51.546;6.912;2023-02-28T01:24:18;9.53;;;5.10;;
13651;SDS011;6899;51.546;6.912;2023-02-28T01:26:47;8.83;;;5.00;;
13651;SDS011;6899;51.546;6.912;2023-02-28T01:29:14;7.43;;;4.80;;
13651;SDS011;6899;51.546;6.912;2023-02-28T01:31:41;8.93;;;4.90;;
13651;SDS011;6899;51.546;6.912;2023-02-28T01:34:20;10.63;;;4.73;;
13651;SDS011;6899;51.546;6.912;2023-02-28T01:36:47;5.90;;;4.80;;
13651;SDS011;6899;51.546;6.912;2023-02-28T01:39:14;7.33;;;4.63;;
13651;SDS011;6899;51.546;6.912;2023-02-28T01:41:41;9.30;;;5.10;;
13651;SDS011;6899;51.546;6.912;2023-02-28T01:47:09;8.93;;;4.43;;
13651;SDS011;6899;51.546;6.912;2023-02-28T01:49:37;11.00;;;5.17;;
13651;SDS011;6899;51.546;6.912;2023-02-28T01:52:04;7.93;;;4.60;;
13651;SDS011;6899;51.546;6.912;2023-02-28T01:54:33;6.97;;;4.60;;
13651;SDS011;6899;51.546;6.912;2023-02-28T01:57:01;7.53;;;4.47;;
13651;SDS011;6899;51.546;6.912;2023-02-28T01:59:31;6.27;;;4.93;;
13651;SDS011;6899;51.546;6.912;2023-02-28T02:02:02;7.40;;;5.13;;
13651;SDS011;6899;51.546;6.912;2023-02-28T02:04:32;6.23;;;4.70;;
13651;SDS011;6899;51.546;6.912;2023-02-28T02:07:03;8.07;;;5.10;;
13651;SDS011;6899;51.546;6.912;2023-02-28T02:09:30;9.93;;;5.57;;
13651;SDS011;6899;51.546;6.912;2023-02-28T02:11:57;6.90;;;5.00;;
13651;SDS011;6899;51.546;6.912;2023-02-28T02:14:38;7.70;;;5.03;;
13651;SDS011;6899;51.546;6.912;2023-02-28T02:17:18;8.40;;;4.90;;
13651;SDS011;6899;51.546;6.912;2023-02-28T02:26:25;8.47;;;5.43;;
13651;SDS011;6899;51.546;6.912;2023-02-28T02:29:19;11.07;;;6.37;;
13651;SDS011;6899;51.546;6.912;2023-02-28T02:32:17;8.83;;;6.43;;
13651;SDS011;6899;51.546;6.912;2023-02-28T02:35:13;9.87;;;5.90;;
13651;SDS011;6899;51.546;6.912;2023-02-28T02:37:47;8.00;;;6.07;;
13651;SDS011;6899;51.546;6.912;2023-02-28T02:40:23;7.53;;;5.67;;
13651;SDS011;6899;51.546;6.912;2023-02-28T02:42:55;12.23;;;6.57;;
13651;SDS011;6899;51.546;6.912;2023-02-28T02:45:28;13.50;;;6.43;;
13651;SDS011;6899;51.546;6.912;2023-02-28T02:48:01;10.53;;;6.03;;
13651;SDS011;6899;51.546;6.912;2023-02-28T02:50:33;10.57;;;6.20;;
13651;SDS011;6899;51.546;6.912;2023-02-28T02:53:02;10.13;;;6.53;;
13651;SDS011;6899;51.546;6.912;2023-02-28T02:55:32;9.00;;;6.27;;
13651;SDS011;6899;51.546;6.912;2023-02-28T02:58:06;9.40;;;5.70;;
13651;SDS011;6899;51.546;6.912;2023-02-28T03:00:37;10.00;;;5.77;;
13651;SDS011;6899;51.546;6.912;2023-02-28T03:03:07;9.77;;;6.33;;
13651;SDS011;6899;51.546;6.912;2023-02-28T03:05:39;10.10;;;5.97;;
13651;SDS011;6899;51.546;6.912;2023-02-28T03:08:10;14.00;;;6.17;;
13651;SDS011;6899;51.546;6.912;2023-02-28T03:10:38;11.50;;;7.13;;
13651;SDS011;6899;51.546;6.912;2023-02-28T03:16:07;14.40;;;6.87;;
13651;SDS011;6899;51.546;6.912;2023-02-28T03:19:25;11.40;;;7.47;;
13651;SDS011;6899;51.546;6.912;2023-02-28T03:22:12;11.17;;;6.83;;
13651;SDS011;6899;51.546;6.912;2023-02-28T03:24:48;10.60;;;6.90;;
13651;SDS011;6899;51.546;6.912;2023-02-28T03:27:23;8.83;;;6.93;;
13651;SDS011;6899;51.546;6.912;2023-02-28T03:29:57;12.60;;;7.33;;
13651;SDS011;6899;51.546;6.912;2023-02-28T03:32:29;10.83;;;7.13;;
13651;SDS011;6899;51.546;6.912;2023-02-28T03:35:02;12.97;;;6.60;;
13651;SDS011;6899;51.546;6.912;2023-02-28T03:37:36;13.23;;;7.43;;
13651;SDS011;6899;51.546;6.912;2023-02-28T03:40:07;10.97;;;6.97;;
13651;SDS011;6899;51.546;6.912;2023-02-28T03:42:38;13.00;;;7.47;;
13651;SDS011;6899;51.546;6.912;2023-02-28T03:45:09;10.57;;;6.70;;
13651;SDS011;6899;51.546;6.912;2023-02-28T03:47:39;16.30;;;7.70;;
13651;SDS011;6899;51.546;6.912;2023-02-28T03:50:10;9.40;;;6.33;;
13651;SDS011;6899;51.546;6.912;2023-02-28T03:52:44;13.13;;;7.50;;
13651;SDS011;6899;51.546;6.912;2023-02-28T03:55:15;10.97;;;6.70;;
13651;SDS011;6899;51.546;6.912;2023-02-28T03:57:46;15.10;;;8.20;;
13651;SDS011;6899;51.546;6.912;2023-02-28T04:00:25;9.33;;;6.43;;
13651;SDS011;6899;51.546;6.912;2023-02-28T04:02:56;9.93;;;6.53;;
13651;SDS011;6899;51.546;6.912;2023-02-28T04:05:23;9.57;;;6.60;;
13651;SDS011;6899;51.546;6.912;2023-02-28T04:07:52;10.80;;;7.10;;
13651;SDS011;6899;51.546;6.912;2023-02-28T04:10:19;11.43;;;7.20;;
13651;SDS011;6899;51.546;6.912;2023-02-28T04:12:46;9.70;;;6.97;;
13651;SDS011;6899;51.546;6.912;2023-02-28T04:15:19;10.73;;;6.73;;
13651;SDS011;6899;51.546;6.912;2023-02-28T04:17:47;12.13;;;7.53;;
13651;SDS011;6899;51.546;6.912;2023-02-28T04:20:14;11.63;;;6.40;;
13651;SDS011;6899;51.546;6.912;2023-02-28T04:22:42;12.67;;;8.00;;
13651;SDS011;6899;51.546;6.912;2023-02-28T04:25:10;10.67;;;7.20;;
13651;SDS011;6899;51.546;6.912;2023-02-28T04:27:46;9.50;;;6.70;;
13651;SDS011;6899;51.546;6.912;2023-02-28T04:30:13;12.53;;;7.60;;
13651;SDS011;6899;51.546;6.912;2023-02-28T04:32:43;13.30;;;7.00;;
13651;SDS011;6899;51.546;6.912;2023-02-28T04:35:10;11.10;;;7.50;;
13651;SDS011;6899;51.546;6.912;2023-02-28T04:37:37;10.27;;;6.90;;
13651;SDS011;6899;51.546;6.912;2023-02-28T04:40:04;13.57;;;7.47;;
13651;SDS011;6899;51.546;6.912;2023-02-28T04:42:34;10.17;;;6.60;;
13651;SDS011;6899;51.546;6.912;2023-02-28T04:45:01;11.90;;;7.00;;
13651;SDS011;6899;51.546;6.912;2023-02-28T04:47:31;9.23;;;6.83;;
13651;SDS011;6899;51.546;6.912;2023-02-28T04:49:58;12.27;;;6.97;;
13651;SDS011;6899;51.546;6.912;2023-02-28T04:52:26;12.83;;;7.50;;
13651;SDS011;6899;51.546;6.912;2023-02-28T04:54:53;13.37;;;6.83;;
13651;SDS011;6899;51.546;6.912;2023-02-28T04:57:20;8.87;;;6.67;;
13651;SDS011;6899;51.546;6.912;2023-02-28T04:59:48;11.43;;;6.83;;
13651;SDS011;6899;51.546;6.912;2023-02-28T05:02:18;10.00;;;7.33;;
13651;SDS011;6899;51.546;6.912;2023-02-28T05:04:46;9.83;;;7.00;;
13651;SDS011;6899;51.546;6.912;2023-02-28T05:07:13;9.50;;;7.00;;
13651;SDS011;6899;51.546;6.912;2023-02-28T05:09:54;9.97;;;6.80;;
13651;SDS011;6899;51.546;6.912;2023-02-28T05:12:24;9.70;;;6.63;;
13651;SDS011;6899;51.546;6.912;2023-02-28T05:14:58;12.50;;;7.47;;
13651;SDS011;6899;51.546;6.912;2023-02-28T05:17:26;10.80;;;7.27;;
13651;SDS011;6899;51.546;6.912;2023-02-28T05:19:54;11.03;;;6.53;;
13651;SDS011;6899;51.546;6.912;2023-02-28T05:22:20;13.43;;;7.00;;
13651;SDS011;6899;51.546;6.912;2023-02-28T05:24:50;10.00;;;7.10;;
13651;SDS011;6899;51.546;6.912;2023-02-28T05:27:17;10.67;;;6.87;;
13651;SDS011;6899;51.546;6.912;2023-02-28T05:29:50;11.33;;;6.37;;
13651;SDS011;6899;51.546;6.912;2023-02-28T05:32:18;12.63;;;6.77;;
13651;SDS011;6899;51.546;6.912;2023-02-28T05:34:45;10.70;;;6.40;;
13651;SDS011;6899;51.546;6.912;2023-02-28T05:37:15;12.23;;;6.23;;
13651;SDS011;6899;51.546;6.912;2023-02-28T05:39:41;9.40;;;6.67;;
13651;SDS011;6899;51.546;6.912;2023-02-28T05:42:11;8.97;;;6.03;;
13651;SDS011;6899;51.546;6.912;2023-02-28T05:44:38;9.30;;;6.57;;
13651;SDS011;6899;51.546;6.912;2023-02-28T05:47:05;10.97;;;6.60;;
13651;SDS011;6899;51.546;6.912;2023-02-28T05:49:44;7.83;;;5.90;;
13651;SDS011;6899;51.546;6.912;2023-02-28T05:52:10;9.93;;;6.50;;
13651;SDS011;6899;51.546;6.912;2023-02-28T05:54:40;10.87;;;5.93;;
13651;SDS011;6899;51.546;6.912;2023-02-28T05:57:06;9.53;;;6.50;;
13651;SDS011;6899;51.546;6.912;2023-02-28T05:59:33;10.90;;;5.97;;
13651;SDS011;6899;51.546;6.912;2023-02-28T06:02:04;7.83;;;5.93;;
13651;SDS011;6899;51.546;6.912;2023-02-28T06:04:32;10.90;;;6.50;;
13651;SDS011;6899;51.546;6.912;2023-02-28T06:07:00;12.83;;;6.90;;
13651;SDS011;6899;51.546;6.912;2023-02-28T06:09:28;9.80;;;6.47;;
13651;SDS011;6899;51.546;6.912;2023-02-28T06:11:57;10.87;;;6.60;;
13651;SDS011;6899;51.546;6.912;2023-02-28T06:14:24;11.23;;;6.27;;
13651;SDS011;6899;51.546;6.912;2023-02-28T06:16:51;9.80;;;5.80;;
13651;SDS011;6899;51.546;6.912;2023-02-28T06:19:18;11.77;;;7.07;;
13651;SDS011;6899;51.546;6.912;2023-02-28T06:21:47;8.80;;;6.17;;
13651;SDS011;6899;51.546;6.912;2023-02-28T06:24:17;9.80;;;6.90;;
13651;SDS011;6899;51.546;6.912;2023-02-28T06:26:44;13.53;;;7.33;;
13651;SDS011;6899;51.546;6.912;2023-02-28T06:29:17;13.77;;;7.70;;
13651;SDS011;6899;51.546;6.912;2023-02-28T06:31:44;14.13;;;7.43;;
13651;SDS011;6899;51.546;6.912;2023-02-28T06:34:15;9.77;;;6.80;;
13651;SDS011;6899;51.546;6.912;2023-02-28T06:36:42;7.60;;;6.17;;
13651;SDS011;6899;51.546;6.912;2023-02-28T06:39:09;14.87;;;7.20;;
13651;SDS011;6899;51.546;6.912;2023-02-28T06:41:38;9.27;;;5.97;;
13651;SDS011;6899;51.546;6.912;2023-02-28T06:44:11;14.57;;;7.50;;
13651;SDS011;6899;51.546;6.912;2023-02-28T06:46:42;11.50;;;7.17;;
13651;SDS011;6899;51.546;6.912;2023-02-28T06:49:10;11.80;;;6.37;;
13651;SDS011;6899;51.546;6.912;2023-02-28T06:51:39;13.27;;;7.27;;
13651;SDS011;6899;51.546;6.912;2023-02-28T06:54:07;10.77;;;6.83;;
13651;SDS011;6899;51.546;6.912;2023-02-28T06:56:35;8.80;;;6.37;;
13651;SDS011;6899;51.546;6.912;2023-02-28T06:59:09;8.90;;;6.67;;
13651;SDS011;6899;51.546;6.912;2023-02-28T07:01:39;9.27;;;6.60;;
13651;SDS011;6899;51.546;6.912;2023-02-28T07:04:06;9.73;;;6.70;;
13651;SDS011;6899;51.546;6.912;2023-02-28T07:06:33;12.47;;;7.00;;
13651;SDS011;6899;51.546;6.912;2023-02-28T07:09:00;14.00;;;6.90;;
13651;SDS011;6899;51.546;6.912;2023-02-28T07:11:28;9.93;;;5.90;;
13651;SDS011;6899;51.546;6.912;2023-02-28T07:13:56;9.57;;;7.10;;
13651;SDS011;6899;51.546;6.912;2023-02-28T07:16:24;11.23;;;6.70;;
13651;SDS011;6899;51.546;6.912;2023-02-28T07:18:54;10.80;;;6.60;;
13651;SDS011;6899;51.546;6.912;2023-02-28T07:21:27;10.70;;;6.77;;
13651;SDS011;6899;51.546;6.912;2023-02-28T07:23:55;8.80;;;6.60;;
13651;SDS011;6899;51.546;6.912;2023-02-28T07:26:22;12.77;;;6.80;;
13651;SDS011;6899;51.546;6.912;2023-02-28T07:28:49;11.50;;;7.77;;
13651;SDS011;6899;51.546;6.912;2023-02-28T07:31:17;10.93;;;7.93;;
13651;SDS011;6899;51.546;6.912;2023-02-28T07:33:46;11.87;;;6.90;;
13651;SDS011;6899;51.546;6.912;2023-02-28T07:36:14;15.20;;;7.63;;
13651;SDS011;6899;51.546;6.912;2023-02-28T07:38:44;13.10;;;6.93;;
13651;SDS011;6899;51.546;6.912;2023-02-28T07:41:16;10.77;;;7.90;;
13651;SDS011;6899;51.546;6.912;2023-02-28T07:43:44;11.73;;;7.17;;
13651;SDS011;6899;51.546;6.912;2023-02-28T07:46:12;12.00;;;6.87;;
13651;SDS011;6899;51.546;6.912;2023-02-28T07:48:41;10.97;;;6.07;;
13651;SDS011;6899;51.546;6.912;2023-02-28T07:51:09;9.50;;;6.13;;
13651;SDS011;6899;51.546;6.912;2023-02-28T07:53:37;12.03;;;6.30;;
13651;SDS011;6899;51.546;6.912;2023-02-28T07:56:04;9.33;;;6.33;;
13651;SDS011;6899;51.546;6.912;2023-02-28T07:58:31;7.80;;;5.57;;
13651;SDS011;6899;51.546;6.912;2023-02-28T08:01:04;8.77;;;6.57;;
13651;SDS011;6899;51.546;6.912;2023-02-28T08:03:32;8.03;;;5.07;;
13651;SDS011;6899;51.546;6.912;2023-02-28T08:05:59;9.03;;;5.70;;
13651;SDS011;6899;51.546;6.912;2023-02-28T08:08:28;11.63;;;5.93;;
13651;SDS011;6899;51.546;6.912;2023-02-28T08:10:59;9.40;;;5.77;;
13651;SDS011;6899;51.546;6.912;2023-02-28T08:13:28;5.77;;;5.00;;
13651;SDS011;6899;51.546;6.912;2023-02-28T08:16:00;7.57;;;5.63;;
13651;SDS011;6899;51.546;6.912;2023-02-28T08:18:28;8.70;;;6.00;;
13651;SDS011;6899;51.546;6.912;2023-02-28T08:20:55;6.77;;;5.37;;
13651;SDS011;6899;51.546;6.912;2023-02-28T08:23:24;8.07;;;5.00;;
13651;SDS011;6899;51.546;6.912;2023-02-28T08:25:56;6.23;;;4.13;;
13651;SDS011;6899;51.546;6.912;2023-02-28T08:28:24;4.73;;;3.57;;
13651;SDS011;6899;51.546;6.912;2023-02-28T08:30:52;7.87;;;3.83;;
13651;SDS011;6899;51.546;6.912;2023-02-28T08:33:20;4.53;;;3.67;;
13651;SDS011;6899;51.546;6.912;2023-02-28T08:35:47;4.43;;;3.30;;
13651;SDS011;6899;51.546;6.912;2023-02-28T08:38:14;4.10;;;3.20;;
13651;SDS011;6899;51.546;6.912;2023-02-28T08:40:41;4.37;;;2.73;;
13651;SDS011;6899;51.546;6.912;2023-02-28T08:43:09;4.40;;;2.70;;
13651;SDS011;6899;51.546;6.912;2023-02-28T08:45:36;4.77;;;2.97;;
13651;SDS011;6899;51.546;6.912;2023-02-28T08:48:03;5.27;;;2.67;;
13651;SDS011;6899;51.546;6.912;2023-02-28T08:50:30;5.57;;;3.37;;
13651;SDS011;6899;51.546;6.912;2023-02-28T08:53:00;4.80;;;3.30;;
13651;SDS011;6899;51.546;6.912;2023-02-28T08:55:26;5.10;;;3.58;;
13651;SDS011;6899;51.546;6.912;2023-02-28T08:57:53;3.37;;;2.70;;
13651;SDS011;6899;51.546;6.912;2023-02-28T09:00:22;3.88;;;2.80;;
13651;SDS011;6899;51.546;6.912;2023-02-28T09:02:52;5.17;;;3.50;;
13651;SDS011;6899;51.546;6.912;2023-02-28T09:05:19;5.20;;;3.58;;
13651;SDS011;6899;51.546;6.912;2023-02-28T09:07:46;4.13;;;2.97;;
13651;SDS011;6899;51.546;6.912;2023-02-28T09:10:13;2.83;;;2.50;;
13651;SDS011;6899;51.546;6.912;2023-02-28T09:12:40;3.90;;;2.65;;
13651;SDS011;6899;51.546;6.912;2023-02-28T09:15:07;6.10;;;2.83;;
13651;SDS011;6899;51.546;6.912;2023-02-28T09:17:41;3.92;;;2.80;;
13651;SDS011;6899;51.546;6.912;2023-02-28T09:20:08;3.78;;;2.78;;
13651;SDS011;6899;51.546;6.912;2023-02-28T09:22:36;7.85;;;4.60;;
13651;SDS011;6899;51.546;6.912;2023-02-28T09:25:04;4.65;;;2.90;;
13651;SDS011;6899;51.546;6.912;2023-02-28T09:27:31;3.28;;;2.70;;
13651;SDS011;6899;51.546;6.912;2023-02-28T09:30:04;3.03;;;2.45;;
13651;SDS011;6899;51.546;6.912;2023-02-28T09:32:31;3.70;;;2.00;;
13651;SDS011;6899;51.546;6.912;2023-02-28T09:34:59;2.50;;;2.13;;
13651;SDS011;6899;51.546;6.912;2023-02-28T09:37:26;3.65;;;2.50;;
13651;SDS011;6899;51.546;6.912;2023-02-28T09:39:55;3.55;;;2.63;;
13651;SDS011;6899;51.546;6.912;2023-02-28T09:42:23;3.05;;;1.85;;
13651;SDS011;6899;51.546;6.912;2023-02-28T09:44:53;2.28;;;1.90;;
13651;SDS011;6899;51.546;6.912;2023-02-28T09:47:25;3.65;;;2.03;;
13651;SDS011;6899;51.546;6.912;2023-02-28T09:49:56;3.28;;;2.33;;
13651;SDS011;6899;51.546;6.912;2023-02-28T09:52:28;2.28;;;2.08;;
13651;SDS011;6899;51.546;6.912;2023-02-28T09:54:58;3.08;;;2.47;;
13651;SDS011;6899;51.546;6.912;2023-02-28T09:57:29;2.53;;;2.33;;
13651;SDS011;6899;51.546;6.912;2023-02-28T10:00:03;2.33;;;1.80;;
13651;SDS011;6899;51.546;6.912;2023-02-28T10:02:46;1.95;;;1.60;;
13651;SDS011;6899;51.546;6.912;2023-02-28T10:05:25;3.22;;;1.60;;
13651;SDS011;6899;51.546;6.912;2023-02-28T10:07:57;2.50;;;2.13;;
13651;SDS011;6899;51.546;6.912;2023-02-28T10:10:32;3.90;;;2.00;;
13651;SDS011;6899;51.546;6.912;2023-02-28T10:13:04;1.73;;;1.63;;
13651;SDS011;6899;51.546;6.912;2023-02-28T10:15:38;3.47;;;2.17;;
13651;SDS011;6899;51.546;6.912;2023-02-28T10:18:06;2.28;;;2.00;;
13651;SDS011;6899;51.546;6.912;2023-02-28T10:20:41;3.70;;;2.08;;
13651;SDS011;6899;51.546;6.912;2023-02-28T10:23:11;3.85;;;1.80;;
13651;SDS011;6899;51.546;6.912;2023-02-28T10:25:44;2.92;;;2.15;;
13651;SDS011;6899;51.546;6.912;2023-02-28T10:28:15;4.03;;;2.40;;
13651;SDS011;6899;51.546;6.912;2023-02-28T10:30:43;2.17;;;1.98;;
13651;SDS011;6899;51.546;6.912;2023-02-28T10:33:17;3.75;;;2.10;;
13651;SDS011;6899;51.546;6.912;2023-02-28T10:35:56;3.92;;;2.50;;
13651;SDS011;6899;51.546;6.912;2023-02-28T10:38:24;4.00;;;1.98;;
13651;SDS011;6899;51.546;6.912;2023-02-28T10:40:57;2.75;;;2.50;;
13651;SDS011;6899;51.546;6.912;2023-02-28T10:43:30;3.35;;;2.50;;
13651;SDS011;6899;51.546;6.912;2023-02-28T10:46:02;2.25;;;2.00;;
13651;SDS011;6899;51.546;6.912;2023-02-28T10:48:34;4.90;;;2.80;;
13651;SDS011;6899;51.546;6.912;2023-02-28T10:51:05;4.40;;;2.80;;
13651;SDS011;6899;51.546;6.912;2023-02-28T10:56:19;4.78;;;2.50;;
13651;SDS011;6899;51.546;6.912;2023-02-28T10:58:52;3.67;;;1.98;;
13651;SDS011;6899;51.546;6.912;2023-02-28T11:01:22;3.05;;;2.03;;
13651;SDS011;6899;51.546;6.912;2023-02-28T11:03:51;3.03;;;2.50;;
13651;SDS011;6899;51.546;6.912;2023-02-28T11:06:22;2.45;;;1.80;;
13651;SDS011;6899;51.546;6.912;2023-02-28T11:08:53;2.70;;;2.10;;
13651;SDS011;6899;51.546;6.912;2023-02-28T11:11:23;3.10;;;2.00;;
13651;SDS011;6899;51.546;6.912;2023-02-28T11:13:57;3.80;;;2.40;;
13651;SDS011;6899;51.546;6.912;2023-02-28T11:16:33;3.92;;;2.20;;
13651;SDS011;6899;51.546;6.912;2023-02-28T11:19:02;3.17;;;2.53;;
13651;SDS011;6899;51.546;6.912;2023-02-28T11:21:32;2.33;;;1.90;;
13651;SDS011;6899;51.546;6.912;2023-02-28T11:24:06;4.65;;;2.45;;
13651;SDS011;6899;51.546;6.912;2023-02-28T11:26:46;2.65;;;2.13;;
13651;SDS011;6899;51.546;6.912;2023-02-28T11:29:17;4.80;;;2.95;;
13651;SDS011;6899;51.546;6.912;2023-02-28T11:32:00;2.03;;;1.88;;
13651;SDS011;6899;51.546;6.912;2023-02-28T11:34:29;3.53;;;2.40;;
13651;SDS011;6899;51.546;6.912;2023-02-28T11:36:59;2.60;;;2.17;;
13651;SDS011;6899;51.546;6.912;2023-02-28T11:39:30;2.53;;;2.13;;
13651;SDS011;6899;51.546;6.912;2023-02-28T11:42:04;3.33;;;2.40;;
13651;SDS011;6899;51.546;6.912;2023-02-28T11:44:43;2.70;;;2.33;;
13651;SDS011;6899;51.546;6.912;2023-02-28T11:47:32;2.70;;;2.50;;
13651;SDS011;6899;51.546;6.912;2023-02-28T11:50:12;3.28;;;2.65;;
13651;SDS011;6899;51.546;6.912;2023-02-28T11:53:00;2.03;;;1.83;;
13651;SDS011;6899;51.546;6.912;2023-02-28T11:55:41;2.92;;;2.40;;
13651;SDS011;6899;51.546;6.912;2023-02-28T11:58:14;2.53;;;2.30;;
13651;SDS011;6899;51.546;6.912;2023-02-28T12:01:00;2.72;;;2.40;;
13651;SDS011;6899;51.546;6.912;2023-02-28T12:03:54;3.30;;;2.70;;
13651;SDS011;6899;51.546;6.912;2023-02-28T12:06:31;3.00;;;2.63;;
13651;SDS011;6899;51.546;6.912;2023-02-28T12:09:11;3.20;;;2.60;;
13651;SDS011;6899;51.546;6.912;2023-02-28T12:11:51;3.80;;;2.80;;
13651;SDS011;6899;51.546;6.912;2023-02-28T12:14:25;2.80;;;2.50;;
13651;SDS011;6899;51.546;6.912;2023-02-28T12:17:15;3.15;;;2.42;;
13651;SDS011;6899;51.546;6.912;2023-02-28T12:19:48;3.97;;;2.45;;
13651;SDS011;6899;51.546;6.912;2023-02-28T12:22:29;3.38;;;2.42;;
13651;SDS011;6899;51.546;6.912;2023-02-28T12:25:06;3.03;;;2.60;;
13651;SDS011;6899;51.546;6.912;2023-02-28T12:28:12;3.05;;;2.75;;
13651;SDS011;6899;51.546;6.912;2023-02-28T12:30:41;3.03;;;2.70;;
13651;SDS011;6899;51.546;6.912;2023-02-28T12:33:17;2.65;;;2.20;;
13651;SDS011;6899;51.546;6.912;2023-02-28T12:35:49;2.40;;;2.20;;
13651;SDS011;6899;51.546;6.912;2023-02-28T12:38:31;2.75;;;2.50;;
13651;SDS011;6899;51.546;6.912;2023-02-28T12:41:08;4.82;;;2.90;;
13651;SDS011;6899;51.546;6.912;2023-02-28T12:43:40;3.17;;;2.45;;
13651;SDS011;6899;51.546;6.912;2023-02-28T12:46:10;4.70;;;2.80;;
13651;SDS011;6899;51.546;6.912;2023-02-28T12:48:43;2.85;;;2.55;;
13651;SDS011;6899;51.546;6.912;2023-02-28T12:51:13;4.15;;;2.70;;
13651;SDS011;6899;51.546;6.912;2023-02-28T12:53:45;3.28;;;2.55;;
13651;SDS011;6899;51.546;6.912;2023-02-28T12:56:24;3.92;;;2.80;;
13651;SDS011;6899;51.546;6.912;2023-02-28T12:59:01;3.58;;;3.15;;
13651;SDS011;6899;51.546;6.912;2023-02-28T13:01:46;5.93;;;3.25;;
13651;SDS011;6899;51.546;6.912;2023-02-28T13:07:49;5.32;;;3.63;;
13651;SDS011;6899;51.546;6.912;2023-02-28T13:10:40;3.28;;;2.97;;
13651;SDS011;6899;51.546;6.912;2023-02-28T13:13:21;4.82;;;3.28;;
13651;SDS011;6899;51.546;6.912;2023-02-28T13:15:57;4.55;;;3.38;;
13651;SDS011;6899;51.546;6.912;2023-02-28T13:18:27;3.30;;;3.00;;
13651;SDS011;6899;51.546;6.912;2023-02-28T13:20:56;3.50;;;3.20;;
13651;SDS011;6899;51.546;6.912;2023-02-28T13:29:31;3.42;;;2.78;;
13651;SDS011;6899;51.546;6.912;2023-02-28T13:32:28;6.57;;;2.80;;
13651;SDS011;6899;51.546;6.912;2023-02-28T13:38:22;4.03;;;2.70;;
13651;SDS011;6899;51.546;6.912;2023-02-28T13:40:50;3.33;;;2.97;;
13651;SDS011;6899;51.546;6.912;2023-02-28T13:43:17;7.90;;;2.50;;
13651;SDS011;6899;51.546;6.912;2023-02-28T13:46:12;2.95;;;2.72;;
13651;SDS011;6899;51.546;6.912;2023-02-28T13:48:39;3.83;;;3.08;;
13651;SDS011;6899;51.546;6.912;2023-02-28T13:51:27;3.40;;;2.90;;
13651;SDS011;6899;51.546;6.912;2023-02-28T13:54:06;3.15;;;2.85;;
13651;SDS011;6899;51.546;6.912;2023-02-28T13:56:57;3.95;;;3.05;;
13651;SDS011;6899;51.546;6.912;2023-02-28T13:59:36;3.38;;;2.80;;
13651;SDS011;6899;51.546;6.912;2023-02-28T14:05:05;4.50;;;2.75;;
13651;SDS011;6899;51.546;6.912;2023-02-28T14:07:41;3.55;;;2.10;;
13651;SDS011;6899;51.546;6.912;2023-02-28T14:10:15;3.08;;;2.78;;
13651;SDS011;6899;51.546;6.912;2023-02-28T14:13:03;3.83;;;3.05;;
13651;SDS011;6899;51.546;6.912;2023-02-28T14:15:46;5.32;;;3.58;;
13651;SDS011;6899;51.546;6.912;2023-02-28T14:18:21;5.43;;;3.50;;
13651;SDS011;6899;51.546;6.912;2023-02-28T14:20:52;4.78;;;2.72;;
13651;SDS011;6899;51.546;6.912;2023-02-28T14:26:31;4.95;;;2.50;;
13651;SDS011;6899;51.546;6.912;2023-02-28T14:29:19;2.80;;;2.60;;
13651;SDS011;6899;51.546;6.912;2023-02-28T14:32:06;3.45;;;2.95;;
13651;SDS011;6899;51.546;6.912;2023-02-28T14:34:44;4.00;;;3.30;;
13651;SDS011;6899;51.546;6.912;2023-02-28T14:37:20;3.63;;;2.75;;
13651;SDS011;6899;51.546;6.912;2023-02-28T14:39:59;3.33;;;2.80;;
13651;SDS011;6899;51.546;6.912;2023-02-28T14:42:36;3.03;;;2.60;;
13651;SDS011;6899;51.546;6.912;2023-02-28T14:45:16;2.72;;;2.50;;
13651;SDS011;6899;51.546;6.912;2023-02-28T14:47:46;3.55;;;2.72;;
13651;SDS011;6899;51.546;6.912;2023-02-28T14:50:20;5.28;;;3.30;;
13651;SDS011;6899;51.546;6.912;2023-02-28T14:52:50;5.03;;;3.20;;
13651;SDS011;6899;51.546;6.912;2023-02-28T14:55:20;5.28;;;3.30;;
13651;SDS011;6899;51.546;6.912;2023-02-28T14:57:51;4.57;;;3.40;;
13651;SDS011;6899;51.546;6.912;2023-02-28T15:00:22;4.13;;;3.65;;
13651;SDS011;6899;51.546;6.912;2023-02-28T15:02:52;4.50;;;3.47;;
13651;SDS011;6899;51.546;6.912;2023-02-28T15:05:25;3.97;;;3.17;;
13651;SDS011;6899;51.546;6.912;2023-02-28T15:08:04;4.18;;;3.22;;
13651;SDS011;6899;51.546;6.912;2023-02-28T15:10:37;5.15;;;3.78;;
13651;SDS011;6899;51.546;6.912;2023-02-28T15:13:20;4.20;;;3.33;;
13651;SDS011;6899;51.546;6.912;2023-02-28T15:16:06;4.47;;;3.15;;
13651;SDS011;6899;51.546;6.912;2023-02-28T15:18:39;3.63;;;3.00;;
13651;SDS011;6899;51.546;6.912;2023-02-28T15:21:13;3.40;;;2.80;;
13651;SDS011;6899;51.546;6.912;2023-02-28T15:23:43;3.80;;;2.97;;
13651;SDS011;6899;51.546;6.912;2023-02-28T15:26:14;4.70;;;3.13;;
13651;SDS011;6899;51.546;6.912;2023-02-28T15:28:43;3.97;;;2.83;;
13651;SDS011;6899;51.546;6.912;2023-02-28T15:31:19;5.45;;;3.63;;
13651;SDS011;6899;51.546;6.912;2023-02-28T15:33:52;3.33;;;2.88;;
13651;SDS011;6899;51.546;6.912;2023-02-28T15:36:23;4.20;;;3.10;;
13651;SDS011;6899;51.546;6.912;2023-02-28T15:38:56;3.08;;;2.78;;
13651;SDS011;6899;51.546;6.912;2023-02-28T15:41:27;4.25;;;3.17;;
13651;SDS011;6899;51.546;6.912;2023-02-28T15:44:13;6.97;;;3.22;;
13651;SDS011;6899;51.546;6.912;2023-02-28T15:46:43;4.38;;;3.20;;
13651;SDS011;6899;51.546;6.912;2023-02-28T15:49:19;13.07;;;4.10;;
13651;SDS011;6899;51.546;6.912;2023-02-28T15:51:49;3.70;;;2.90;;
13651;SDS011;6899;51.546;6.912;2023-02-28T15:54:19;3.92;;;3.20;;
13651;SDS011;6899;51.546;6.912;2023-02-28T15:56:50;2.88;;;2.63;;
13651;SDS011;6899;51.546;6.912;2023-02-28T15:59:20;4.78;;;3.45;;